Terminal Aerodrome Forecast
Issued by NWS Wilmington, OH

Current Version | Previous Version | Graphics & Text | Print | Product List | Glossary On
Versions: 1 2 3 4 5 6 7 8 9 10 11 12 13 14 15 16
000
FTUS41 KILN 211028 AAB
TAFILN
TAF AMD
KILN 211028Z 2110/2206 28008KT P6SM FEW025 SCT080
     FM211500 28012G20KT P6SM BKN035
     FM212300 31005KT P6SM SCT250=

USA.gov is the U.S. government's official web portal to all federal, state and local government web resources and services.